Time;durP1;ratioP1;P1;durP2;ratioP2;P2;SDS_P1;SDS_P2;PMS_P1;PMS_P2;Temp;Humidity;BMP_temperature;BMP_pressure;BME280_temperature;BME280_humidity;BME280_pressure;Samples;Min_cycle;Max_cycle;Signal;HPM_P1;HPM_P2
2022/06/13 00:00:28;;;;;;;7.80;2.70;;;;;;;;;;5003208;28;20200;-76
2022/06/13 00:02:55;;;;;;;5.23;2.30;;;;;;;;;;5002982;28;20251;-76
2022/06/13 00:05:23;;;;;;;10.00;2.50;;;;;;;;;;5000461;28;20288;-76
2022/06/13 00:07:50;;;;;;;7.13;2.60;;;;;;;;;;5001356;28;20668;-76
2022/06/13 00:10:17;;;;;;;12.50;3.23;;;;;;;;;;5008137;28;20204;-78
2022/06/13 00:12:46;;;;;;;7.17;2.43;;;;;;;;;;4999433;28;20337;-77
2022/06/13 00:15:15;;;;;;;7.87;2.60;;;;;;;;;;5002945;28;20654;-76
2022/06/13 00:17:43;;;;;;;8.53;3.03;;;;;;;;;;5008812;28;20673;-77
2022/06/13 00:20:10;;;;;;;6.87;2.60;;;;;;;;;;5011907;28;20291;-77
2022/06/13 00:22:37;;;;;;;9.77;2.47;;;;;;;;;;5004823;28;20694;-78
2022/06/13 00:25:05;;;;;;;11.30;3.50;;;;;;;;;;5006774;28;20296;-77
2022/06/13 00:27:32;;;;;;;8.13;2.73;;;;;;;;;;5007714;28;20310;-77
2022/06/13 00:30:01;;;;;;;6.53;2.57;;;;;;;;;;5007659;28;20666;-77
2022/06/13 00:32:28;;;;;;;7.13;2.70;;;;;;;;;;5008632;28;20208;-77
2022/06/13 00:34:55;;;;;;;12.50;2.90;;;;;;;;;;5004925;28;20233;-77
2022/06/13 00:37:22;;;;;;;5.30;2.57;;;;;;;;;;5007741;28;20247;-77
2022/06/13 00:39:50;;;;;;;4.20;2.50;;;;;;;;;;5005542;28;20644;-78
2022/06/13 00:42:18;;;;;;;8.73;3.00;;;;;;;;;;5004137;28;20239;-77
2022/06/13 00:45:00;;;;;;;7.67;2.90;;;;;;;;;;5006286;28;20256;-77
2022/06/13 00:47:29;;;;;;;10.27;2.63;;;;;;;;;;5004433;28;20278;-77
2022/06/13 00:49:56;;;;;;;9.50;2.60;;;;;;;;;;5005466;28;20287;-76
2022/06/13 00:52:29;;;;;;;5.97;2.30;;;;;;;;;;5004670;28;20298;-77
2022/06/13 00:54:56;;;;;;;7.13;2.60;;;;;;;;;;5002096;28;20514;-78
2022/06/13 00:57:25;;;;;;;7.47;2.60;;;;;;;;;;5007588;28;20580;-77
2022/06/13 00:59:54;;;;;;;7.80;2.80;;;;;;;;;;5005097;28;20292;-77
2022/06/13 01:02:22;;;;;;;6.87;2.80;;;;;;;;;;5001186;28;20252;-77
2022/06/13 01:04:51;;;;;;;8.40;2.63;;;;;;;;;;5006003;28;20205;-76
2022/06/13 01:07:20;;;;;;;11.07;2.80;;;;;;;;;;5009273;28;20682;-77
2022/06/13 01:12:38;;;;;;;7.80;2.90;;;;;;;;;;4934920;28;20203;-76
2022/06/13 01:15:16;;;;;;;6.00;2.70;;;;;;;;;;5004085;28;20212;-76
2022/06/13 01:17:51;;;;;;;7.43;2.90;;;;;;;;;;5006347;28;20624;-75
2022/06/13 01:20:37;;;;;;;10.20;2.50;;;;;;;;;;5006528;28;20243;-76
2022/06/13 01:23:34;;;;;;;9.63;3.17;;;;;;;;;;5005093;28;20611;-76
2022/06/13 01:26:11;;;;;;;6.87;2.70;;;;;;;;;;4949458;28;20579;-76
2022/06/13 01:28:45;;;;;;;8.23;3.03;;;;;;;;;;4989116;28;20237;-76
2022/06/13 01:31:15;;;;;;;6.03;2.57;;;;;;;;;;5008724;28;20615;-76
2022/06/13 01:33:50;;;;;;;5.83;2.50;;;;;;;;;;5004017;28;20282;-76
2022/06/13 01:36:24;;;;;;;9.30;2.80;;;;;;;;;;5005118;28;20204;-76
2022/06/13 01:38:58;;;;;;;9.97;2.90;;;;;;;;;;5004758;28;20630;-76
2022/06/13 01:41:28;;;;;;;5.90;2.47;;;;;;;;;;5002651;28;20291;-76
2022/06/13 01:44:01;;;;;;;7.30;2.83;;;;;;;;;;5003754;28;20321;-76
2022/06/13 01:46:32;;;;;;;8.23;2.80;;;;;;;;;;5004727;28;20225;-77
2022/06/13 01:49:05;;;;;;;8.00;3.07;;;;;;;;;;5003421;28;20682;-76
2022/06/13 01:51:37;;;;;;;10.30;3.10;;;;;;;;;;5002350;28;20209;-76
2022/06/13 01:54:16;;;;;;;5.53;2.77;;;;;;;;;;5005874;28;20294;-76
2022/06/13 01:56:47;;;;;;;5.83;2.83;;;;;;;;;;5004088;28;20235;-76
2022/06/13 01:59:16;;;;;;;7.40;3.20;;;;;;;;;;5001628;28;20295;-75
2022/06/13 02:01:48;;;;;;;8.67;2.90;;;;;;;;;;5006666;28;20263;-76
2022/06/13 02:04:18;;;;;;;10.50;3.30;;;;;;;;;;5004224;28;20318;-76
2022/06/13 02:06:49;;;;;;;6.37;3.07;;;;;;;;;;5003234;28;20567;-76
2022/06/13 02:09:18;;;;;;;9.33;3.07;;;;;;;;;;5004112;28;20297;-76
2022/06/13 02:11:47;;;;;;;5.30;3.07;;;;;;;;;;5007150;28;20295;-76
2022/06/13 02:14:16;;;;;;;9.27;2.87;;;;;;;;;;5005129;28;20408;-75
2022/06/13 02:16:47;;;;;;;9.47;3.13;;;;;;;;;;5007616;28;20579;-77
2022/06/13 02:19:16;;;;;;;6.83;2.80;;;;;;;;;;5012037;28;20263;-78
2022/06/13 02:21:46;;;;;;;8.80;3.07;;;;;;;;;;5012722;28;20236;-77
2022/06/13 02:24:16;;;;;;;8.33;3.23;;;;;;;;;;5011279;28;20247;-78
2022/06/13 02:26:45;;;;;;;5.57;3.00;;;;;;;;;;5011560;28;20630;-76
2022/06/13 02:29:14;;;;;;;5.90;2.90;;;;;;;;;;5003912;28;20311;-76
2022/06/13 02:31:44;;;;;;;6.17;3.10;;;;;;;;;;5005604;28;20655;-76
2022/06/13 02:34:15;;;;;;;8.83;2.70;;;;;;;;;;5002524;28;20526;-75
2022/06/13 02:36:45;;;;;;;10.73;2.70;;;;;;;;;;5004900;28;20734;-76
2022/06/13 02:39:13;;;;;;;9.07;3.23;;;;;;;;;;5005687;28;20243;-75
2022/06/13 02:41:42;;;;;;;10.43;3.37;;;;;;;;;;5002606;28;20291;-75
2022/06/13 02:44:14;;;;;;;9.20;3.53;;;;;;;;;;5003560;28;20220;-75
2022/06/13 02:46:44;;;;;;;7.73;3.07;;;;;;;;;;5003972;28;20733;-75
2022/06/13 02:49:13;;;;;;;8.27;3.17;;;;;;;;;;5003719;28;20209;-75
2022/06/13 02:51:43;;;;;;;8.80;3.13;;;;;;;;;;5003600;28;20295;-76
2022/06/13 02:54:12;;;;;;;10.27;3.27;;;;;;;;;;5012667;28;20650;-75
2022/06/13 02:59:35;;;;;;;6.97;2.67;;;;;;;;;;4999366;28;20203;-75
2022/06/13 03:02:03;;;;;;;10.27;3.23;;;;;;;;;;5000263;28;20302;-75
2022/06/13 03:04:35;;;;;;;5.87;2.70;;;;;;;;;;5002615;28;20324;-75
2022/06/13 03:07:07;;;;;;;8.83;3.00;;;;;;;;;;5001136;28;20249;-77
2022/06/13 03:09:37;;;;;;;5.33;3.03;;;;;;;;;;5004781;28;20205;-76
2022/06/13 03:12:06;;;;;;;6.30;3.30;;;;;;;;;;5006475;28;20715;-77
2022/06/13 03:14:38;;;;;;;8.23;3.00;;;;;;;;;;5002487;28;20652;-77
2022/06/13 03:17:08;;;;;;;8.07;2.87;;;;;;;;;;5003629;28;20750;-76
2022/06/13 03:19:40;;;;;;;5.90;2.80;;;;;;;;;;5009629;28;20299;-76
2022/06/13 03:22:09;;;;;;;7.27;2.90;;;;;;;;;;5005369;28;20243;-76
2022/06/13 03:24:41;;;;;;;6.37;2.57;;;;;;;;;;5015070;28;20324;-75
2022/06/13 03:27:12;;;;;;;6.27;2.73;;;;;;;;;;5007539;28;20220;-76
2022/06/13 03:29:41;;;;;;;4.83;2.77;;;;;;;;;;5006093;28;20203;-76
2022/06/13 03:32:10;;;;;;;5.13;2.60;;;;;;;;;;5010094;28;20204;-76
2022/06/13 03:34:40;;;;;;;4.13;2.50;;;;;;;;;;5009095;28;20228;-75
2022/06/13 03:37:10;;;;;;;7.83;2.80;;;;;;;;;;5010045;28;20240;-75
2022/06/13 03:39:40;;;;;;;7.13;2.70;;;;;;;;;;5008792;28;20583;-76
2022/06/13 03:42:11;;;;;;;15.37;2.83;;;;;;;;;;5005673;28;20295;-77
2022/06/13 03:44:41;;;;;;;11.23;3.00;;;;;;;;;;5006244;28;20239;-76
2022/06/13 03:47:11;;;;;;;8.63;2.90;;;;;;;;;;5009668;28;20891;-77
2022/06/13 03:49:42;;;;;;;5.70;2.80;;;;;;;;;;5006973;28;20822;-77
2022/06/13 03:52:10;;;;;;;11.37;2.80;;;;;;;;;;5002046;28;20214;-76
2022/06/13 03:54:39;;;;;;;9.77;2.53;;;;;;;;;;5006718;28;20837;-76
2022/06/13 03:57:10;;;;;;;7.87;2.47;;;;;;;;;;5007647;28;20636;-77
2022/06/13 03:59:40;;;;;;;7.23;2.40;;;;;;;;;;5003914;28;20283;-77
2022/06/13 04:02:10;;;;;;;6.60;2.30;;;;;;;;;;5004523;28;20299;-76
2022/06/13 04:04:39;;;;;;;6.97;2.80;;;;;;;;;;5002715;28;20315;-77
2022/06/13 04:07:07;;;;;;;4.87;2.70;;;;;;;;;;5003301;28;20571;-76
2022/06/13 04:09:36;;;;;;;6.03;2.50;;;;;;;;;;5003925;28;20726;-75
2022/06/13 04:12:16;;;;;;;9.57;3.40;;;;;;;;;;5004166;28;20292;-75
2022/06/13 04:14:55;;;;;;;6.77;2.67;;;;;;;;;;5003757;28;20310;-76
2022/06/13 04:17:26;;;;;;;6.93;2.40;;;;;;;;;;5004878;28;20263;-76
2022/06/13 04:19:57;;;;;;;11.13;2.60;;;;;;;;;;5002425;28;20309;-76
2022/06/13 04:22:33;;;;;;;6.10;2.63;;;;;;;;;;5004538;28;20295;-77
2022/06/13 04:25:03;;;;;;;7.17;2.67;;;;;;;;;;5006564;28;20307;-77
2022/06/13 04:27:33;;;;;;;11.07;3.20;;;;;;;;;;5002636;28;20792;-77
2022/06/13 04:30:09;;;;;;;7.90;3.00;;;;;;;;;;5003573;28;20263;-76
2022/06/13 04:32:39;;;;;;;14.33;3.30;;;;;;;;;;5001989;28;20212;-76
2022/06/13 04:35:07;;;;;;;6.77;2.57;;;;;;;;;;5005649;28;20630;-77
2022/06/13 04:37:36;;;;;;;20.40;2.67;;;;;;;;;;5003951;28;20262;-76
2022/06/13 04:40:06;;;;;;;12.97;2.93;;;;;;;;;;4998623;28;20209;-76
2022/06/13 04:42:35;;;;;;;8.33;2.80;;;;;;;;;;4998945;28;20288;-76
2022/06/13 04:45:17;;;;;;;12.73;2.80;;;;;;;;;;5004083;28;20201;-77
2022/06/13 04:47:44;;;;;;;8.00;2.60;;;;;;;;;;5008999;28;20255;-76
2022/06/13 04:50:15;;;;;;;9.73;3.07;;;;;;;;;;5005016;28;20287;-76
2022/06/13 04:52:45;;;;;;;6.87;2.70;;;;;;;;;;5007101;28;20256;-76
2022/06/13 04:55:25;;;;;;;8.63;2.70;;;;;;;;;;5009042;28;20236;-77
2022/06/13 04:57:53;;;;;;;7.00;2.40;;;;;;;;;;5009533;28;20614;-78
2022/06/13 05:00:20;;;;;;;5.37;2.53;;;;;;;;;;5007041;28;20299;-76
2022/06/13 05:02:48;;;;;;;5.73;2.77;;;;;;;;;;5008059;28;20311;-77
2022/06/13 05:05:27;;;;;;;7.53;2.33;;;;;;;;;;5006587;28;20204;-77
2022/06/13 05:07:56;;;;;;;11.73;2.63;;;;;;;;;;5009141;28;20721;-76
2022/06/13 05:10:27;;;;;;;7.03;2.80;;;;;;;;;;5004547;28;20636;-78
2022/06/13 05:12:54;;;;;;;5.00;2.10;;;;;;;;;;5008885;28;20732;-77
2022/06/13 05:15:25;;;;;;;10.57;2.77;;;;;;;;;;5009945;28;20270;-78
2022/06/13 05:18:13;;;;;;;11.53;2.60;;;;;;;;;;5010499;28;20238;-76
2022/06/13 05:20:45;;;;;;;10.70;2.67;;;;;;;;;;5011776;28;20220;-77
2022/06/13 05:23:23;;;;;;;7.50;2.50;;;;;;;;;;5014585;28;20276;-77
2022/06/13 05:25:53;;;;;;;9.00;2.70;;;;;;;;;;5012424;28;20204;-77
2022/06/13 05:28:24;;;;;;;8.97;2.90;;;;;;;;;;5012687;28;20256;-78
2022/06/13 05:30:52;;;;;;;17.90;2.80;;;;;;;;;;5017751;28;20209;-77
2022/06/13 05:33:20;;;;;;;5.13;2.33;;;;;;;;;;5017027;28;20229;-77
2022/06/13 05:35:52;;;;;;;9.80;2.43;;;;;;;;;;5013960;28;20300;-78
2022/06/13 05:38:22;;;;;;;5.97;2.40;;;;;;;;;;5020040;28;20282;-78
2022/06/13 05:40:49;;;;;;;8.40;2.20;;;;;;;;;;5012499;28;20239;-76
2022/06/13 05:43:17;;;;;;;11.40;2.37;;;;;;;;;;5005651;28;20319;-77
2022/06/13 05:45:44;;;;;;;6.30;2.37;;;;;;;;;;5005188;28;20650;-76
2022/06/13 05:48:13;;;;;;;9.10;2.40;;;;;;;;;;5009747;28;20264;-78
2022/06/13 05:50:40;;;;;;;15.70;2.93;;;;;;;;;;5016001;28;20244;-79
2022/06/13 05:53:07;;;;;;;15.77;2.80;;;;;;;;;;5004209;28;20292;-76
2022/06/13 05:55:37;;;;;;;16.27;2.47;;;;;;;;;;5013794;28;20205;-78
2022/06/13 05:58:04;;;;;;;8.60;2.30;;;;;;;;;;5005574;28;20291;-75
2022/06/13 06:00:35;;;;;;;8.60;2.10;;;;;;;;;;5002248;28;20288;-76
2022/06/13 06:03:02;;;;;;;6.07;2.07;;;;;;;;;;5002592;28;20235;-76
2022/06/13 06:05:29;;;;;;;5.57;2.20;;;;;;;;;;5008072;28;20213;-75
2022/06/13 06:07:57;;;;;;;8.53;2.10;;;;;;;;;;5004522;28;20262;-76
2022/06/13 06:10:27;;;;;;;6.87;2.27;;;;;;;;;;5007310;28;20255;-76
2022/06/13 06:12:56;;;;;;;9.90;2.30;;;;;;;;;;5004934;28;20753;-75
2022/06/13 06:15:23;;;;;;;6.90;1.93;;;;;;;;;;5001832;28;20294;-75
2022/06/13 06:17:50;;;;;;;6.63;2.40;;;;;;;;;;5005620;28;20301;-76
2022/06/13 06:20:18;;;;;;;5.93;2.17;;;;;;;;;;5008247;28;20251;-76
2022/06/13 06:22:45;;;;;;;5.97;1.90;;;;;;;;;;5003045;28;20628;-76
2022/06/13 06:25:12;;;;;;;8.03;1.73;;;;;;;;;;5003291;28;20266;-77
2022/06/13 06:27:40;;;;;;;7.90;2.23;;;;;;;;;;5005225;28;20215;-77
2022/06/13 06:30:09;;;;;;;7.37;2.00;;;;;;;;;;5001747;28;20226;-77
2022/06/13 06:32:36;;;;;;;10.43;2.10;;;;;;;;;;5004999;28;20212;-77
2022/06/13 06:35:04;;;;;;;11.80;2.50;;;;;;;;;;5004291;28;20750;-75
2022/06/13 06:37:31;;;;;;;8.47;2.40;;;;;;;;;;5001364;28;20212;-75
2022/06/13 06:39:59;;;;;;;11.77;2.70;;;;;;;;;;5003891;28;21722;-76
2022/06/13 06:42:26;;;;;;;12.63;2.20;;;;;;;;;;5003950;28;20633;-76
2022/06/13 06:44:53;;;;;;;8.57;2.30;;;;;;;;;;5002591;28;20334;-76
2022/06/13 06:47:22;;;;;;;10.00;2.20;;;;;;;;;;5004193;28;20232;-76
2022/06/13 06:49:49;;;;;;;9.90;2.10;;;;;;;;;;5002149;28;20247;-77
2022/06/13 06:52:16;;;;;;;7.30;1.90;;;;;;;;;;5007869;28;20294;-77
2022/06/13 07:00:14;;;;;;;10.33;2.07;;;;;;;;;;5003253;28;20250;-77
2022/06/13 07:02:42;;;;;;;8.60;2.00;;;;;;;;;;5003868;28;20671;-77
2022/06/13 07:05:10;;;;;;;8.13;2.37;;;;;;;;;;5003130;28;20292;-77
2022/06/13 07:07:37;;;;;;;11.43;2.30;;;;;;;;;;5007903;28;20291;-76
2022/06/13 07:10:04;;;;;;;8.40;2.33;;;;;;;;;;5002561;28;20661;-76
2022/06/13 07:12:32;;;;;;;10.80;2.50;;;;;;;;;;5005951;28;20222;-77
2022/06/13 07:14:59;;;;;;;11.87;2.63;;;;;;;;;;5004640;28;20730;-76
2022/06/13 07:17:27;;;;;;;11.97;2.90;;;;;;;;;;5002090;28;20297;-78
2022/06/13 07:19:55;;;;;;;14.47;2.50;;;;;;;;;;5001081;28;20197;-78
2022/06/13 07:22:24;;;;;;;9.20;2.73;;;;;;;;;;5006422;28;20666;-76
2022/06/13 07:24:51;;;;;;;10.60;2.60;;;;;;;;;;5008701;28;20217;-75
2022/06/13 07:27:19;;;;;;;13.57;2.90;;;;;;;;;;5003914;28;20231;-76
2022/06/13 07:29:46;;;;;;;16.53;3.37;;;;;;;;;;5001252;28;20264;-76
2022/06/13 07:32:15;;;;;;;12.03;3.47;;;;;;;;;;5003287;28;20284;-75
2022/06/13 07:34:44;;;;;;;13.37;3.23;;;;;;;;;;5004845;28;20786;-76
2022/06/13 07:38:16;;;;;;;11.80;3.37;;;;;;;;;;5002581;28;20713;-76
2022/06/13 07:40:02;;;;;;;13.23;3.37;;;;;;;;;;5007657;28;20649;-75
2022/06/13 07:42:29;;;;;;;10.87;3.37;;;;;;;;;;5004005;28;20204;-77
2022/06/13 07:44:56;;;;;;;12.47;3.07;;;;;;;;;;5002201;28;20247;-76
2022/06/13 07:47:24;;;;;;;14.30;3.53;;;;;;;;;;5002928;28;20215;-75
2022/06/13 07:49:51;;;;;;;13.00;2.97;;;;;;;;;;5002582;28;21246;-76
2022/06/13 07:52:19;;;;;;;15.77;3.77;;;;;;;;;;5003938;28;20295;-75
2022/06/13 07:54:47;;;;;;;10.07;2.90;;;;;;;;;;5005168;28;20256;-75
2022/06/13 07:57:14;;;;;;;11.63;3.20;;;;;;;;;;5001613;28;20291;-75
2022/06/13 07:59:41;;;;;;;13.20;2.80;;;;;;;;;;5003813;28;20291;-76
2022/06/13 08:02:11;;;;;;;12.00;3.03;;;;;;;;;;5009076;28;20615;-76
2022/06/13 08:04:38;;;;;;;16.50;3.47;;;;;;;;;;5002466;28;20377;-77
2022/06/13 08:07:05;;;;;;;16.40;3.83;;;;;;;;;;5005438;28;20262;-77
2022/06/13 08:09:34;;;;;;;14.27;3.63;;;;;;;;;;5006697;28;20256;-78
2022/06/13 08:12:01;;;;;;;13.20;3.50;;;;;;;;;;5004606;28;20330;-77
2022/06/13 08:14:28;;;;;;;12.63;3.10;;;;;;;;;;5003202;28;20674;-78
2022/06/13 08:16:55;;;;;;;16.33;3.60;;;;;;;;;;5001997;28;20231;-77
2022/06/13 08:19:23;;;;;;;19.07;3.50;;;;;;;;;;5002319;28;20234;-78
2022/06/13 08:21:51;;;;;;;10.43;3.20;;;;;;;;;;5005633;28;20295;-77
2022/06/13 08:24:19;;;;;;;12.07;2.90;;;;;;;;;;5008533;28;20653;-77
2022/06/13 08:26:47;;;;;;;13.07;3.13;;;;;;;;;;5004034;28;20228;-78
2022/06/13 08:29:14;;;;;;;10.93;3.30;;;;;;;;;;5006172;28;20667;-77
2022/06/13 08:31:42;;;;;;;9.00;3.40;;;;;;;;;;5006955;28;20248;-77
2022/06/13 08:34:09;;;;;;;12.20;3.20;;;;;;;;;;5009309;28;20224;-78
2022/06/13 08:36:36;;;;;;;7.40;2.70;;;;;;;;;;5012022;28;20295;-77
2022/06/13 08:39:04;;;;;;;8.27;2.40;;;;;;;;;;5007638;28;20207;-77
2022/06/13 08:41:38;;;;;;;11.23;3.23;;;;;;;;;;5001792;28;20276;-77
2022/06/13 08:44:10;;;;;;;4.80;2.33;;;;;;;;;;5002952;28;20684;-78
2022/06/13 08:46:43;;;;;;;8.23;2.93;;;;;;;;;;5000773;28;20280;-77
2022/06/13 08:49:13;;;;;;;5.53;2.70;;;;;;;;;;5008292;28;20270;-77
2022/06/13 08:51:45;;;;;;;10.77;3.00;;;;;;;;;;5002780;28;20295;-77
2022/06/13 08:54:14;;;;;;;11.97;3.30;;;;;;;;;;4998734;28;20315;-76
2022/06/13 08:56:42;;;;;;;10.00;3.50;;;;;;;;;;5000422;28;20202;-75
2022/06/13 08:59:25;;;;;;;11.40;3.47;;;;;;;;;;4997386;28;20208;-74
2022/06/13 09:02:02;;;;;;;15.83;3.70;;;;;;;;;;5004331;28;20212;-76
2022/06/13 09:04:32;;;;;;;11.53;3.90;;;;;;;;;;5009623;28;20268;-76
2022/06/13 09:07:02;;;;;;;11.07;3.80;;;;;;;;;;5010400;28;20241;-78
2022/06/13 09:09:34;;;;;;;7.57;3.70;;;;;;;;;;5009740;28;20223;-77
2022/06/13 09:12:04;;;;;;;10.30;4.03;;;;;;;;;;5012434;28;20493;-77
2022/06/13 09:14:34;;;;;;;11.33;3.80;;;;;;;;;;5016409;28;20256;-77
2022/06/13 09:17:05;;;;;;;11.53;4.23;;;;;;;;;;5006370;28;20208;-76
2022/06/13 09:19:36;;;;;;;14.20;4.23;;;;;;;;;;5006276;28;20296;-78
2022/06/13 09:22:05;;;;;;;11.37;3.90;;;;;;;;;;5013525;28;20235;-78
2022/06/13 09:24:37;;;;;;;9.27;3.67;;;;;;;;;;5006971;28;20301;-78
2022/06/13 09:27:06;;;;;;;15.00;4.50;;;;;;;;;;5009986;28;20622;-78
2022/06/13 09:29:38;;;;;;;15.53;4.23;;;;;;;;;;5009975;28;20229;-79
2022/06/13 09:32:09;;;;;;;13.00;4.23;;;;;;;;;;5010319;28;20638;-76
2022/06/13 09:34:40;;;;;;;12.37;4.30;;;;;;;;;;5006324;28;20248;-76
2022/06/13 09:37:09;;;;;;;13.73;4.70;;;;;;;;;;5007378;28;20683;-75
2022/06/13 09:39:37;;;;;;;14.77;5.30;;;;;;;;;;5005956;28;20277;-76
2022/06/13 09:42:17;;;;;;;16.23;5.03;;;;;;;;;;5006182;28;20654;-76
2022/06/13 09:45:15;;;;;;;16.13;5.40;;;;;;;;;;5008848;28;20263;-75
2022/06/13 09:47:47;;;;;;;14.37;4.87;;;;;;;;;;4998453;28;20591;-76
2022/06/13 09:50:19;;;;;;;12.13;4.43;;;;;;;;;;5008431;28;20266;-76
2022/06/13 09:52:50;;;;;;;10.73;4.27;;;;;;;;;;5009129;28;20308;-75
2022/06/13 09:55:21;;;;;;;10.30;4.70;;;;;;;;;;5009460;28;20228;-77
2022/06/13 09:57:53;;;;;;;9.73;3.87;;;;;;;;;;5008839;28;20239;-77
2022/06/13 10:00:23;;;;;;;10.43;3.97;;;;;;;;;;5009867;28;20645;-77
2022/06/13 10:02:57;;;;;;;11.30;3.83;;;;;;;;;;5006690;28;20250;-76
2022/06/13 10:05:35;;;;;;;13.47;4.00;;;;;;;;;;5003928;28;20205;-77
2022/06/13 10:08:07;;;;;;;8.97;3.63;;;;;;;;;;5008251;28;20865;-76
2022/06/13 10:10:37;;;;;;;11.83;3.83;;;;;;;;;;5002078;28;20319;-77
2022/06/13 10:13:14;;;;;;;13.80;4.03;;;;;;;;;;5006072;28;20256;-76
2022/06/13 10:15:46;;;;;;;14.13;4.57;;;;;;;;;;5004768;28;20218;-76
2022/06/13 10:18:23;;;;;;;9.40;4.00;;;;;;;;;;5002624;28;20215;-78
2022/06/13 10:20:53;;;;;;;10.87;3.73;;;;;;;;;;5007801;28;20196;-76
2022/06/13 10:23:27;;;;;;;10.33;3.93;;;;;;;;;;5003907;28;20324;-76
2022/06/13 10:25:59;;;;;;;12.43;4.40;;;;;;;;;;5004617;28;20677;-77
2022/06/13 10:28:32;;;;;;;15.23;4.23;;;;;;;;;;5003909;28;20292;-75
2022/06/13 10:31:04;;;;;;;12.07;3.70;;;;;;;;;;5002848;28;20219;-75
2022/06/13 10:33:39;;;;;;;11.63;4.23;;;;;;;;;;5004948;28;20232;-75
2022/06/13 10:36:11;;;;;;;12.80;4.10;;;;;;;;;;5002211;28;20299;-75
2022/06/13 10:39:17;;;;;;;13.50;4.17;;;;;;;;;;5010657;28;20285;-75
2022/06/13 10:41:46;;;;;;;12.50;4.07;;;;;;;;;;4925645;29;20199;-75
2022/06/13 10:44:14;;;;;;;13.03;4.50;;;;;;;;;;4993061;28;20231;-75
2022/06/13 10:46:43;;;;;;;12.97;4.80;;;;;;;;;;5005202;28;20292;-76
2022/06/13 10:49:15;;;;;;;14.77;4.20;;;;;;;;;;5005955;28;20208;-75
2022/06/13 10:51:43;;;;;;;15.23;4.70;;;;;;;;;;5005127;28;20519;-76
2022/06/13 10:54:14;;;;;;;16.63;4.67;;;;;;;;;;5005462;28;20250;-76
2022/06/13 10:56:43;;;;;;;11.47;4.20;;;;;;;;;;5003670;28;20580;-76
2022/06/13 10:59:22;;;;;;;7.83;4.03;;;;;;;;;;5003754;28;20208;-75
2022/06/13 11:01:54;;;;;;;9.90;3.90;;;;;;;;;;5003125;28;20203;-75
2022/06/13 11:04:24;;;;;;;12.60;3.87;;;;;;;;;;5005537;28;20221;-75
2022/06/13 11:06:53;;;;;;;8.57;3.73;;;;;;;;;;5004357;28;20618;-75
2022/06/13 11:09:22;;;;;;;9.40;3.03;;;;;;;;;;5005544;28;20208;-76
2022/06/13 11:11:54;;;;;;;8.20;3.20;;;;;;;;;;5005858;28;20304;-75
2022/06/13 11:14:27;;;;;;;11.93;3.60;;;;;;;;;;5001136;28;20220;-75
2022/06/13 11:22:38;;;;;;;8.33;3.10;;;;;;;;;;5003749;28;20199;-76
2022/06/13 11:25:23;;;;;;;9.40;3.30;;;;;;;;;;5006564;28;20725;-77
2022/06/13 11:28:01;;;;;;;8.57;3.33;;;;;;;;;;5001418;28;20259;-76
2022/06/13 11:30:36;;;;;;;9.70;3.47;;;;;;;;;;5000528;28;20222;-76
2022/06/13 11:33:04;;;;;;;13.60;4.27;;;;;;;;;;5004811;28;20311;-77
2022/06/13 11:35:37;;;;;;;15.17;3.77;;;;;;;;;;5003476;28;20240;-77
2022/06/13 11:38:18;;;;;;;13.10;3.90;;;;;;;;;;5013061;28;20218;-77
2022/06/13 11:40:47;;;;;;;13.10;4.10;;;;;;;;;;5002014;28;20217;-76
2022/06/13 11:46:39;;;;;;;9.57;3.03;;;;;;;;;;5038993;22;20296;-77
2022/06/13 11:49:20;;;;;;;6.50;2.90;;;;;;;;;;5018112;28;20235;-79
2022/06/13 11:51:53;;;;;;;10.70;3.80;;;;;;;;;;5023496;28;20274;-77
2022/06/13 11:54:22;;;;;;;11.47;3.47;;;;;;;;;;5017335;28;20228;-79
2022/06/13 11:56:50;;;;;;;13.63;3.30;;;;;;;;;;5024538;28;20196;-78
2022/06/13 11:59:19;;;;;;;11.87;3.17;;;;;;;;;;5019179;28;20294;-78
2022/06/13 12:01:46;;;;;;;13.97;3.60;;;;;;;;;;5018628;28;20204;-76
2022/06/13 12:04:17;;;;;;;7.93;3.10;;;;;;;;;;5025050;28;20227;-79
2022/06/13 12:06:46;;;;;;;9.23;3.23;;;;;;;;;;5021762;28;20212;-77
2022/06/13 12:09:21;;;;;;;11.63;4.60;;;;;;;;;;5011316;28;20208;-77
2022/06/13 12:11:49;;;;;;;11.80;3.87;;;;;;;;;;5014967;28;20326;-79
2022/06/13 12:14:16;;;;;;;12.87;3.10;;;;;;;;;;5011071;28;20618;-79
2022/06/13 12:16:49;;;;;;;10.70;3.83;;;;;;;;;;5016683;28;20274;-79
2022/06/13 12:19:23;;;;;;;10.83;3.90;;;;;;;;;;5016423;28;20200;-79
2022/06/13 12:21:54;;;;;;;8.37;3.43;;;;;;;;;;5015083;28;20629;-78
2022/06/13 12:24:24;;;;;;;10.27;3.97;;;;;;;;;;5011638;28;20330;-78
2022/06/13 12:26:56;;;;;;;13.70;3.77;;;;;;;;;;5017949;28;20222;-77
2022/06/13 12:29:31;;;;;;;9.70;3.60;;;;;;;;;;5014458;28;20945;-78
2022/06/13 12:32:02;;;;;;;10.13;3.40;;;;;;;;;;5017237;28;20202;-77
2022/06/13 12:34:31;;;;;;;12.80;3.50;;;;;;;;;;5011474;28;20230;-76
2022/06/13 12:37:09;;;;;;;12.90;3.77;;;;;;;;;;5014059;28;20349;-78
2022/06/13 12:39:50;;;;;;;12.23;3.10;;;;;;;;;;5019475;28;20204;-77
2022/06/13 12:42:25;;;;;;;8.60;3.37;;;;;;;;;;5020434;28;20506;-77
2022/06/13 12:45:01;;;;;;;12.17;3.73;;;;;;;;;;5021510;28;20196;-76
2022/06/13 12:47:39;;;;;;;12.77;3.50;;;;;;;;;;5022114;28;20570;-77
2022/06/13 12:50:30;;;;;;;8.60;3.33;;;;;;;;;;5014449;28;20212;-78
2022/06/13 12:53:03;;;;;;;14.27;3.97;;;;;;;;;;5019620;28;20219;-76
2022/06/13 12:55:37;;;;;;;15.10;3.13;;;;;;;;;;5013287;28;20215;-77
2022/06/13 12:58:11;;;;;;;14.00;3.87;;;;;;;;;;5015109;28;21875;-76
2022/06/13 13:00:40;;;;;;;13.13;3.50;;;;;;;;;;5016117;28;20294;-76
2022/06/13 13:03:21;;;;;;;14.20;3.80;;;;;;;;;;5011963;28;20224;-79
2022/06/13 13:05:54;;;;;;;12.23;3.23;;;;;;;;;;5018551;28;20204;-77
2022/06/13 13:08:31;;;;;;;10.53;3.70;;;;;;;;;;5025215;28;20286;-78
2022/06/13 13:11:08;;;;;;;14.23;3.50;;;;;;;;;;5022092;28;20212;-79
2022/06/13 13:13:43;;;;;;;12.40;3.60;;;;;;;;;;5024606;28;20223;-78
2022/06/13 13:16:15;;;;;;;9.20;3.10;;;;;;;;;;5024764;28;20257;-79
2022/06/13 13:18:47;;;;;;;12.13;3.17;;;;;;;;;;5023606;28;20205;-77
2022/06/13 13:21:16;;;;;;;9.50;3.30;;;;;;;;;;5025420;28;20200;-77
2022/06/13 13:23:48;;;;;;;10.93;3.63;;;;;;;;;;5023172;28;20235;-77
2022/06/13 13:26:27;;;;;;;8.20;3.30;;;;;;;;;;5019395;28;20690;-78
2022/06/13 13:28:59;;;;;;;8.47;3.27;;;;;;;;;;5023790;28;20844;-78
2022/06/13 13:31:30;;;;;;;10.90;3.57;;;;;;;;;;5026348;28;20207;-78
2022/06/13 13:34:06;;;;;;;11.50;3.10;;;;;;;;;;5018118;28;20350;-81
2022/06/13 13:36:36;;;;;;;8.57;3.00;;;;;;;;;;5016056;28;20204;-80
2022/06/13 13:39:07;;;;;;;10.20;2.97;;;;;;;;;;5018871;28;20295;-80
2022/06/13 13:41:38;;;;;;;11.10;3.33;;;;;;;;;;5011709;28;20891;-79
2022/06/13 13:44:10;;;;;;;8.27;2.70;;;;;;;;;;5014128;28;20231;-79
2022/06/13 13:46:40;;;;;;;12.23;2.70;;;;;;;;;;5019450;28;20219;-80
2022/06/13 13:49:11;;;;;;;8.93;2.80;;;;;;;;;;5020680;28;20272;-81
2022/06/13 13:51:40;;;;;;;10.27;2.97;;;;;;;;;;5017264;28;20640;-79
2022/06/13 13:54:11;;;;;;;11.07;2.87;;;;;;;;;;5018433;28;20258;-79
2022/06/13 13:56:42;;;;;;;6.37;2.60;;;;;;;;;;5022152;28;20196;-80
2022/06/13 13:59:11;;;;;;;10.27;2.73;;;;;;;;;;5021018;28;20204;-80
2022/06/13 14:01:44;;;;;;;9.13;2.50;;;;;;;;;;5017343;28;20203;-80
2022/06/13 14:04:23;;;;;;;10.57;2.63;;;;;;;;;;5019749;28;20231;-79
2022/06/13 14:06:53;;;;;;;11.03;2.93;;;;;;;;;;5015869;28;20609;-80
2022/06/13 14:09:20;;;;;;;9.60;2.60;;;;;;;;;;5024358;28;20374;-81
2022/06/13 14:12:03;;;;;;;8.57;2.70;;;;;;;;;;5024342;28;20656;-82
2022/06/13 14:14:38;;;;;;;6.30;2.83;;;;;;;;;;5025677;28;20269;-81
2022/06/13 14:17:06;;;;;;;5.60;2.50;;;;;;;;;;5021035;28;20294;-80
2022/06/13 14:19:34;;;;;;;6.47;2.20;;;;;;;;;;5025250;28;20291;-80
2022/06/13 14:22:12;;;;;;;8.27;2.27;;;;;;;;;;5018915;28;20650;-81
2022/06/13 14:24:46;;;;;;;12.67;2.27;;;;;;;;;;5024388;28;20223;-80
2022/06/13 14:27:17;;;;;;;6.47;2.23;;;;;;;;;;5019937;28;20275;-79
2022/06/13 14:29:45;;;;;;;6.43;2.40;;;;;;;;;;5017698;28;20230;-80
2022/06/13 14:32:15;;;;;;;8.40;1.90;;;;;;;;;;5020288;28;20427;-80
2022/06/13 14:37:29;;;;;;;10.83;2.17;;;;;;;;;;5020200;28;20348;-81
2022/06/13 14:39:57;;;;;;;5.10;1.80;;;;;;;;;;5025378;28;21159;-82
2022/06/13 14:42:45;;;;;;;7.70;2.10;;;;;;;;;;5022141;28;20212;-81
2022/06/13 14:45:17;;;;;;;9.30;2.40;;;;;;;;;;5010065;28;20627;-81
2022/06/13 14:47:50;;;;;;;9.67;2.10;;;;;;;;;;5023870;28;20223;-80
2022/06/13 14:50:32;;;;;;;8.30;2.17;;;;;;;;;;5018903;28;20228;-81
2022/06/13 14:53:27;;;;;;;6.30;2.03;;;;;;;;;;5019619;28;20227;-80
2022/06/13 14:56:12;;;;;;;6.47;1.80;;;;;;;;;;5026510;28;20206;-82
2022/06/13 14:58:54;;;;;;;8.43;1.97;;;;;;;;;;5020434;28;20214;-79
2022/06/13 15:01:24;;;;;;;7.93;1.80;;;;;;;;;;5018955;28;20203;-79
2022/06/13 15:04:07;;;;;;;8.70;1.73;;;;;;;;;;5020463;28;20974;-78
2022/06/13 15:06:36;;;;;;;4.93;1.20;;;;;;;;;;5019790;28;20765;-78
2022/06/13 15:09:05;;;;;;;7.50;2.00;;;;;;;;;;5018817;28;20342;-80
2022/06/13 15:11:32;;;;;;;8.87;2.20;;;;;;;;;;5016451;28;21378;-82
2022/06/13 15:14:00;;;;;;;10.53;2.20;;;;;;;;;;5016423;28;20228;-80
2022/06/13 15:16:32;;;;;;;7.03;1.80;;;;;;;;;;5013785;28;20314;-78
2022/06/13 15:19:03;;;;;;;3.37;1.27;;;;;;;;;;5010615;28;20335;-79
2022/06/13 15:21:32;;;;;;;4.70;1.47;;;;;;;;;;5008905;28;20223;-83